createdAt,value
2018-09-03T00:00:54.017Z,19.10
2018-09-03T00:03:22.441Z,19.10
2018-09-03T00:05:50.874Z,19.00
2018-09-03T00:08:19.325Z,19.00
2018-09-03T00:10:47.775Z,18.90
2018-09-03T00:13:16.233Z,18.80
2018-09-03T00:15:44.684Z,18.80
2018-09-03T00:18:13.173Z,18.70
2018-09-03T00:20:41.599Z,18.60
2018-09-03T00:23:10.053Z,18.50
2018-09-03T00:25:38.501Z,18.50
2018-09-03T00:28:06.952Z,18.40
2018-09-03T00:30:35.410Z,18.40
2018-09-03T00:33:09.289Z,18.30
2018-09-03T00:35:43.048Z,18.20
2018-09-03T00:38:16.865Z,18.20
2018-09-03T00:41:49.489Z,18.20
2018-09-03T00:44:23.257Z,18.20
2018-09-03T00:46:56.997Z,18.20
2018-09-03T00:49:25.445Z,18.20
2018-09-03T00:51:53.902Z,18.20
2018-09-03T00:54:22.355Z,18.20
2018-09-03T00:56:50.833Z,18.30
2018-09-03T00:59:19.331Z,18.30
2018-09-03T01:01:47.779Z,18.30
2018-09-03T01:04:16.218Z,18.40
2018-09-03T01:06:44.656Z,18.30
2018-09-03T01:09:13.114Z,18.30
2018-09-03T01:11:41.640Z,18.30
2018-09-03T01:14:10.119Z,18.30
2018-09-03T01:16:38.531Z,18.30
2018-09-03T01:19:06.969Z,18.30
2018-09-03T01:21:35.413Z,18.30
2018-09-03T01:24:04.033Z,18.30
2018-09-03T01:26:32.708Z,18.30
2018-09-03T01:29:01.187Z,18.30
2018-09-03T01:31:29.697Z,18.30
2018-09-03T01:33:58.141Z,18.30
2018-09-03T01:36:26.606Z,18.30
2018-09-03T01:38:55.095Z,18.30
2018-09-03T01:41:23.537Z,18.30
2018-09-03T01:43:51.989Z,18.30
2018-09-03T01:46:20.668Z,18.40
2018-09-03T01:48:49.104Z,18.40
2018-09-03T01:51:17.583Z,18.40
2018-09-03T01:53:46.088Z,18.40
2018-09-03T01:56:14.589Z,18.50
2018-09-03T01:58:43.011Z,18.50
2018-09-03T02:01:11.536Z,18.50
2018-09-03T02:03:40.012Z,18.50
2018-09-03T02:06:09.033Z,18.50
2018-09-03T02:08:37.514Z,18.50
2018-09-03T02:11:06.452Z,18.60
2018-09-03T02:13:35.410Z,18.60
2018-09-03T02:16:04.265Z,18.60
2018-09-03T02:18:33.237Z,18.60
2018-09-03T02:21:01.825Z,18.70
2018-09-03T02:23:30.304Z,18.70
2018-09-03T02:25:58.737Z,18.70
2018-09-03T02:28:27.208Z,18.70
2018-09-03T02:30:55.657Z,18.70
2018-09-03T02:33:24.128Z,18.70
2018-09-03T02:35:52.613Z,18.60
2018-09-03T02:38:21.114Z,18.60
2018-09-03T02:40:49.801Z,18.60
2018-09-03T02:43:18.269Z,18.50
2018-09-03T02:45:46.990Z,18.40
2018-09-03T02:48:15.458Z,18.40
2018-09-03T02:50:43.890Z,18.30
2018-09-03T02:53:12.325Z,18.30
2018-09-03T02:55:40.779Z,18.30
2018-09-03T02:58:09.204Z,18.30
2018-09-03T03:00:37.658Z,18.30
2018-09-03T03:03:06.300Z,18.30
2018-09-03T03:05:34.783Z,18.30
2018-09-03T03:08:03.778Z,18.30
2018-09-03T03:10:32.231Z,18.30
2018-09-03T03:13:00.726Z,18.30
2018-09-03T03:15:29.978Z,18.30
2018-09-03T03:17:59.116Z,18.40
2018-09-03T03:20:27.617Z,18.40
2018-09-03T03:22:56.195Z,18.40
2018-09-03T03:25:26.474Z,18.40
2018-09-03T03:27:55.029Z,18.40
2018-09-03T03:30:23.551Z,18.40
2018-09-03T03:32:52.049Z,18.40
2018-09-03T03:35:20.573Z,18.40
2018-09-03T03:37:49.724Z,18.40
2018-09-03T03:40:19.224Z,18.40
2018-09-03T03:42:47.665Z,18.50
2018-09-03T03:45:16.167Z,18.50
2018-09-03T03:47:44.624Z,18.50
2018-09-03T03:50:13.058Z,18.50
2018-09-03T03:52:41.583Z,18.50
2018-09-03T03:55:10.196Z,18.50
2018-09-03T03:57:38.576Z,18.50
2018-09-03T04:00:07.548Z,18.50
2018-09-03T04:02:36.098Z,18.40
2018-09-03T04:05:04.744Z,18.40
2018-09-03T04:07:33.229Z,18.40
2018-09-03T04:10:01.673Z,18.30
2018-09-03T04:12:30.194Z,18.30
2018-09-03T04:14:58.669Z,18.30
2018-09-03T04:17:27.122Z,18.20
2018-09-03T04:20:01.562Z,18.20
2018-09-03T04:22:30.240Z,18.20
2018-09-03T04:24:58.792Z,18.20
2018-09-03T04:27:27.274Z,18.20
2018-09-03T04:29:55.752Z,18.20
2018-09-03T04:32:24.480Z,18.20
2018-09-03T04:34:52.957Z,18.20
2018-09-03T04:37:21.664Z,18.20
2018-09-03T04:39:50.153Z,18.20
2018-09-03T04:42:18.609Z,18.30
2018-09-03T04:44:47.245Z,18.30
2018-09-03T04:47:15.853Z,18.30
2018-09-03T04:49:44.364Z,18.30
2018-09-03T04:52:12.841Z,18.30
2018-09-03T04:54:41.364Z,18.30
2018-09-03T04:57:09.847Z,18.30
2018-09-03T04:59:38.350Z,18.40
2018-09-03T05:02:07.002Z,18.40
2018-09-03T05:04:37.961Z,18.40
2018-09-03T05:07:06.560Z,18.40
2018-09-03T05:09:38.151Z,18.50
2018-09-03T05:12:06.990Z,18.50
2018-09-03T05:14:35.767Z,18.50
2018-09-03T05:17:04.457Z,18.50
2018-09-03T05:19:32.912Z,18.60
2018-09-03T05:22:01.387Z,18.50
2018-09-03T05:24:29.898Z,18.60
2018-09-03T05:26:58.379Z,18.50
2018-09-03T05:29:26.898Z,18.60
2018-09-03T05:31:55.350Z,18.50
2018-09-03T05:34:23.782Z,18.60
2018-09-03T05:36:52.248Z,18.60
2018-09-03T05:39:20.673Z,18.70
2018-09-03T05:41:49.196Z,18.70
2018-09-03T05:44:17.654Z,18.80
2018-09-03T05:46:46.113Z,18.80
2018-09-03T05:49:14.601Z,18.90
2018-09-03T05:51:43.052Z,18.90
2018-09-03T05:54:11.605Z,18.90
2018-09-03T05:56:40.047Z,19.00
2018-09-03T05:59:08.546Z,19.10
2018-09-03T06:01:37.019Z,19.10
2018-09-03T06:04:06.235Z,19.20
2018-09-03T06:06:35.095Z,19.20
2018-09-03T06:09:04.902Z,19.30
2018-09-03T06:11:33.485Z,19.30
2018-09-03T06:14:02.429Z,19.30
2018-09-03T06:16:31.458Z,19.30
2018-09-03T06:19:01.008Z,19.40
2018-09-03T06:21:29.454Z,19.40
2018-09-03T06:23:58.162Z,19.50
2018-09-03T06:26:26.563Z,19.50
2018-09-03T06:28:55.079Z,19.60
2018-09-03T06:31:23.799Z,19.60
2018-09-03T06:33:52.369Z,19.60
2018-09-03T06:36:20.843Z,19.70
2018-09-03T06:38:49.390Z,19.70
2018-09-03T06:41:17.861Z,19.70
2018-09-03T06:43:46.716Z,19.70
2018-09-03T06:46:15.265Z,19.70
2018-09-03T06:48:43.893Z,19.70
2018-09-03T06:51:12.792Z,19.70
2018-09-03T06:53:41.475Z,19.70
2018-09-03T06:56:10.250Z,19.70
2018-09-03T06:58:38.966Z,19.70
2018-09-03T07:01:07.624Z,19.70
2018-09-03T07:03:36.372Z,19.80
2018-09-03T07:06:05.767Z,19.80
2018-09-03T07:08:37.501Z,19.80
2018-09-03T07:11:06.781Z,19.80
2018-09-03T07:13:35.785Z,19.70
2018-09-03T07:16:05.216Z,19.70
2018-09-03T07:18:34.232Z,19.70
2018-09-03T07:21:03.433Z,19.70
2018-09-03T07:23:32.478Z,19.70
2018-09-03T07:26:01.528Z,19.80
2018-09-03T07:28:30.421Z,19.90
2018-09-03T07:30:59.615Z,20.00
2018-09-03T07:33:28.690Z,20.10
2018-09-03T07:35:57.485Z,20.30
2018-09-03T07:38:26.411Z,20.40
2018-09-03T07:40:55.728Z,20.50
2018-09-03T07:43:24.225Z,20.50
2018-09-03T07:45:52.694Z,20.50
2018-09-03T07:48:21.246Z,20.50
2018-09-03T07:50:49.703Z,20.50
2018-09-03T07:53:18.144Z,20.50
2018-09-03T07:55:46.576Z,20.40
2018-09-03T07:58:15.095Z,20.40
2018-09-03T08:00:43.881Z,20.30
2018-09-03T08:03:12.484Z,20.20
2018-09-03T08:05:40.963Z,20.10
2018-09-03T08:08:09.521Z,19.90
2018-09-03T08:10:38.005Z,19.90
2018-09-03T08:13:06.658Z,19.80
2018-09-03T08:15:35.098Z,19.70
2018-09-03T08:18:03.563Z,19.70
2018-09-03T08:20:32.350Z,19.60
2018-09-03T08:23:00.941Z,19.50
2018-09-03T08:25:29.530Z,19.40
2018-09-03T08:27:58.010Z,19.30
2018-09-03T08:30:26.513Z,19.30
2018-09-03T08:32:55.017Z,19.30
2018-09-03T08:35:23.518Z,19.20
2018-09-03T08:37:52.022Z,19.20
2018-09-03T08:40:21.093Z,19.10
2018-09-03T08:42:49.544Z,19.00
2018-09-03T08:45:18.089Z,19.00
2018-09-03T08:47:46.610Z,18.90
2018-09-03T08:50:15.433Z,19.00
2018-09-03T08:52:43.869Z,19.00
2018-09-03T08:55:12.523Z,19.10
2018-09-03T08:57:41.273Z,19.20
2018-09-03T09:00:09.764Z,19.30
2018-09-03T09:02:38.267Z,19.40
2018-09-03T09:05:06.986Z,19.50
2018-09-03T09:07:35.561Z,19.60
2018-09-03T09:10:04.250Z,19.60
2018-09-03T09:12:32.768Z,19.60
2018-09-03T09:15:01.272Z,19.70
2018-09-03T09:17:30.443Z,19.70
2018-09-03T09:19:59.743Z,19.80
2018-09-03T09:22:28.368Z,19.80
2018-09-03T09:24:57.592Z,19.90
2018-09-03T09:27:26.214Z,19.90
2018-09-03T09:29:54.687Z,20.00
2018-09-03T09:32:23.215Z,20.00
2018-09-03T09:34:51.831Z,20.00
2018-09-03T09:37:20.540Z,20.00
2018-09-03T09:39:49.072Z,19.90
2018-09-03T09:42:17.628Z,20.00
2018-09-03T09:44:46.072Z,20.00
2018-09-03T09:47:16.133Z,20.00
2018-09-03T09:49:44.652Z,20.10
2018-09-03T09:52:13.213Z,20.10
2018-09-03T09:54:41.696Z,20.20
2018-09-03T09:57:10.482Z,20.40
2018-09-03T09:59:38.997Z,20.70
2018-09-03T10:02:07.528Z,21.00
2018-09-03T10:04:36.065Z,21.30
2018-09-03T10:07:04.714Z,21.50
2018-09-03T10:09:33.142Z,21.60
2018-09-03T10:12:01.895Z,21.80
2018-09-03T10:14:30.713Z,21.80
2018-09-03T10:16:59.853Z,21.80
2018-09-03T10:19:29.219Z,21.80
2018-09-03T10:21:57.657Z,21.90
2018-09-03T10:24:26.203Z,22.00
2018-09-03T10:26:54.678Z,22.00
2018-09-03T10:29:23.286Z,22.00
2018-09-03T10:31:51.731Z,22.10
2018-09-03T10:34:20.219Z,22.30
2018-09-03T10:36:48.855Z,22.50
2018-09-03T10:39:17.308Z,22.80
2018-09-03T10:41:45.773Z,23.00
2018-09-03T10:44:14.241Z,23.40
2018-09-03T10:46:42.744Z,23.80
2018-09-03T10:49:11.232Z,24.20
2018-09-03T10:51:39.764Z,24.50
2018-09-03T10:54:08.248Z,24.80
2018-09-03T10:56:36.818Z,25.00
2018-09-03T10:59:05.399Z,25.30
2018-09-03T11:01:34.453Z,25.30
2018-09-03T11:04:02.919Z,25.50
2018-09-03T11:06:32.412Z,25.90
2018-09-03T11:09:00.992Z,26.10
2018-09-03T11:11:29.449Z,26.20
2018-09-03T11:13:58.653Z,26.30
2018-09-03T11:16:27.118Z,26.20
2018-09-03T11:18:55.700Z,26.30
2018-09-03T11:21:24.308Z,26.40
2018-09-03T11:23:52.806Z,26.60
2018-09-03T11:26:21.277Z,26.90
2018-09-03T11:28:49.846Z,26.90
2018-09-03T11:31:18.370Z,26.90
2018-09-03T11:33:47.920Z,27.00
2018-09-03T11:36:17.011Z,27.10
2018-09-03T11:38:45.954Z,27.00
2018-09-03T11:41:14.486Z,26.80
2018-09-03T11:43:43.074Z,26.50
2018-09-03T11:46:11.609Z,26.40
2018-09-03T11:48:40.276Z,26.40
2018-09-03T11:51:08.996Z,26.40
2018-09-03T11:53:37.634Z,26.50
2018-09-03T11:56:06.204Z,26.30
2018-09-03T11:58:34.981Z,26.10
2018-09-03T12:01:03.554Z,26.10
2018-09-03T12:03:32.684Z,26.20
2018-09-03T12:06:01.184Z,26.30
2018-09-03T12:08:29.768Z,26.30
2018-09-03T12:10:58.345Z,26.40
2018-09-03T12:13:27.140Z,26.40
2018-09-03T12:16:11.359Z,26.50
2018-09-03T12:18:41.801Z,26.80
2018-09-03T12:21:11.124Z,27.00
2018-09-03T12:23:40.167Z,27.20
2018-09-03T12:26:09.663Z,27.20
2018-09-03T12:28:39.212Z,27.20
2018-09-03T12:31:08.086Z,27.50
2018-09-03T12:33:36.794Z,27.70
2018-09-03T12:36:06.364Z,27.60
2018-09-03T12:38:35.613Z,27.60
2018-09-03T12:41:05.016Z,27.40
2018-09-03T12:43:34.079Z,27.50
2018-09-03T12:46:04.192Z,27.60
2018-09-03T12:48:33.097Z,27.70
2018-09-03T12:51:02.800Z,27.80
2018-09-03T12:53:31.740Z,27.70
2018-09-03T12:56:00.697Z,27.30
2018-09-03T12:58:29.799Z,27.20
2018-09-03T13:00:58.501Z,27.40
2018-09-03T13:03:27.530Z,27.40
2018-09-03T13:05:56.193Z,27.30
2018-09-03T13:08:25.221Z,27.00
2018-09-03T13:10:53.857Z,26.80
2018-09-03T13:13:22.398Z,26.60
2018-09-03T13:15:51.090Z,26.30
2018-09-03T13:18:19.792Z,26.10
2018-09-03T13:20:48.727Z,25.70
2018-09-03T13:23:17.375Z,25.60
2018-09-03T13:25:46.339Z,25.60
2018-09-03T13:28:15.308Z,25.60
2018-09-03T13:30:43.952Z,25.70
2018-09-03T13:33:12.520Z,25.80
2018-09-03T13:35:41.038Z,25.90
2018-09-03T13:38:11.938Z,26.00
2018-09-03T13:40:40.672Z,26.00
2018-09-03T13:43:09.360Z,26.00
2018-09-03T13:45:38.055Z,26.20
2018-09-03T13:48:06.468Z,26.30
2018-09-03T13:50:35.174Z,26.30
2018-09-03T13:53:03.892Z,26.20
2018-09-03T13:55:32.606Z,26.10
2018-09-03T13:58:01.289Z,26.00
2018-09-03T14:00:30.312Z,26.00
2018-09-03T14:02:58.892Z,26.00
2018-09-03T14:05:27.833Z,26.00
2018-09-03T14:07:56.513Z,26.00
2018-09-03T14:10:32.113Z,26.10
2018-09-03T14:13:00.644Z,25.70
2018-09-03T14:15:29.614Z,25.40
2018-09-03T14:17:58.462Z,25.10
2018-09-03T14:20:27.662Z,25.00
2018-09-03T14:22:56.210Z,24.80
2018-09-03T14:25:24.733Z,24.40
2018-09-03T14:27:53.201Z,24.20
2018-09-03T14:30:21.798Z,24.00
2018-09-03T14:32:50.282Z,23.70
2018-09-03T14:35:18.879Z,23.60
2018-09-03T14:37:47.389Z,23.40
2018-09-03T14:40:17.102Z,23.20
2018-09-03T14:42:46.069Z,23.00
2018-09-03T14:45:14.698Z,23.00
2018-09-03T14:47:43.425Z,23.00
2018-09-03T14:50:12.314Z,23.00
2018-09-03T14:52:40.904Z,23.00
2018-09-03T14:55:09.472Z,23.20
2018-09-03T14:57:38.056Z,23.30
2018-09-03T15:00:07.849Z,23.30
2018-09-03T15:02:36.693Z,23.40
2018-09-03T15:05:05.296Z,23.40
2018-09-03T15:07:33.976Z,23.50
2018-09-03T15:10:02.657Z,23.60
2018-09-03T15:12:31.416Z,23.70
2018-09-03T15:15:00.043Z,23.90
2018-09-03T15:17:28.741Z,24.00
2018-09-03T15:19:57.517Z,24.10
2018-09-03T15:22:26.368Z,24.20
2018-09-03T15:24:54.911Z,24.20
2018-09-03T15:27:23.605Z,24.20
2018-09-03T15:29:52.394Z,24.20
2018-09-03T15:32:21.030Z,24.40
2018-09-03T15:34:49.573Z,24.50
2018-09-03T15:37:18.712Z,24.50
2018-09-03T15:39:47.401Z,24.50
2018-09-03T15:42:16.115Z,24.40
2018-09-03T15:44:44.817Z,24.30
2018-09-03T15:47:13.693Z,24.20
2018-09-03T15:49:42.272Z,24.10
2018-09-03T15:52:10.758Z,23.90
2018-09-03T15:54:41.285Z,23.80
2018-09-03T15:57:09.836Z,23.80
2018-09-03T15:59:38.404Z,23.80
2018-09-03T16:02:06.926Z,23.80
2018-09-03T16:04:35.517Z,23.90
2018-09-03T16:07:04.094Z,23.90
2018-09-03T16:09:32.687Z,23.90
2018-09-03T16:12:01.206Z,23.90
2018-09-03T16:14:29.795Z,24.00
2018-09-03T16:16:58.429Z,24.00
2018-09-03T16:19:27.188Z,24.10
2018-09-03T16:21:55.907Z,24.10
2018-09-03T16:24:24.636Z,24.00
2018-09-03T16:26:53.177Z,24.10
2018-09-03T16:29:21.707Z,24.00
2018-09-03T16:31:50.276Z,24.00
2018-09-03T16:34:18.820Z,23.90
2018-09-03T16:36:47.365Z,23.90
2018-09-03T16:39:15.912Z,23.70
2018-09-03T16:41:44.594Z,23.70
2018-09-03T16:44:13.066Z,23.60
2018-09-03T16:46:41.617Z,23.60
2018-09-03T16:49:10.285Z,23.50
2018-09-03T16:51:39.032Z,23.40
2018-09-03T16:54:07.581Z,23.30
2018-09-03T16:56:36.171Z,23.30
2018-09-03T16:59:04.835Z,23.20
2018-09-03T17:01:33.564Z,23.20
2018-09-03T17:04:02.123Z,23.00
2018-09-03T17:06:30.601Z,23.00
2018-09-03T17:08:59.500Z,22.90
2018-09-03T17:11:29.553Z,22.90
2018-09-03T17:13:58.110Z,22.90
2018-09-03T17:16:26.635Z,22.80
2018-09-03T17:18:55.220Z,22.80
2018-09-03T17:21:24.187Z,22.80
2018-09-03T17:23:52.737Z,22.80
2018-09-03T17:26:21.431Z,22.80
2018-09-03T17:28:50.209Z,22.70
2018-09-03T17:31:18.766Z,22.70
2018-09-03T17:33:47.343Z,22.60
2018-09-03T17:36:15.838Z,22.60
2018-09-03T17:38:51.009Z,22.60
2018-09-03T17:41:19.682Z,22.50
2018-09-03T17:43:48.347Z,22.50
2018-09-03T17:46:17.125Z,22.40
2018-09-03T17:48:47.340Z,22.40
2018-09-03T17:51:15.959Z,22.30
2018-09-03T17:53:44.570Z,22.30
2018-09-03T17:56:13.067Z,22.30
2018-09-03T17:58:41.774Z,22.30
2018-09-03T18:01:10.253Z,22.20
2018-09-03T18:03:39.283Z,22.20
2018-09-03T18:06:07.857Z,22.20
2018-09-03T18:08:36.545Z,22.10
2018-09-03T18:11:05.146Z,22.10
2018-09-03T18:13:33.725Z,22.10
2018-09-03T18:16:02.231Z,22.10
2018-09-03T18:18:30.737Z,22.10
2018-09-03T18:20:59.265Z,22.00
2018-09-03T18:23:27.788Z,22.00
2018-09-03T18:25:56.329Z,21.90
2018-09-03T18:28:24.965Z,21.80
2018-09-03T18:30:53.551Z,21.80
2018-09-03T18:33:22.045Z,21.70
2018-09-03T18:35:50.684Z,21.70
2018-09-03T18:38:19.174Z,21.60
2018-09-03T18:40:47.789Z,21.60
2018-09-03T18:43:16.296Z,21.50
2018-09-03T18:45:44.923Z,21.50
2018-09-03T18:48:13.707Z,21.40
2018-09-03T18:50:42.578Z,21.40
2018-09-03T18:53:11.208Z,21.40
2018-09-03T18:55:39.890Z,21.30
2018-09-03T18:58:08.956Z,21.30
2018-09-03T19:00:37.850Z,21.30
2018-09-03T19:03:06.831Z,21.30
2018-09-03T19:05:36.034Z,21.20
2018-09-03T19:08:04.922Z,21.20
2018-09-03T19:10:33.810Z,21.20
2018-09-03T19:13:03.111Z,21.10
2018-09-03T19:15:32.217Z,21.10
2018-09-03T19:18:00.728Z,21.10
2018-09-03T19:20:29.887Z,21.20
2018-09-03T19:22:58.453Z,21.20
2018-09-03T19:25:27.462Z,21.20
2018-09-03T19:27:56.558Z,21.20
2018-09-03T19:30:25.554Z,21.20
2018-09-03T19:32:54.167Z,21.20
2018-09-03T19:35:23.081Z,21.20
2018-09-03T19:37:51.926Z,21.20
2018-09-03T19:40:20.464Z,21.20
2018-09-03T19:42:48.999Z,21.20
2018-09-03T19:45:17.546Z,21.20
2018-09-03T19:47:46.019Z,21.20
2018-09-03T19:50:14.611Z,21.20
2018-09-03T19:52:43.135Z,21.10
2018-09-03T19:55:11.805Z,21.10
2018-09-03T19:57:40.830Z,21.10
2018-09-03T20:00:09.386Z,21.10
2018-09-03T20:02:37.961Z,21.10
2018-09-03T20:05:06.988Z,21.10
2018-09-03T20:07:35.822Z,21.10
2018-09-03T20:10:04.540Z,21.10
2018-09-03T20:12:33.202Z,21.10
2018-09-03T20:15:01.999Z,21.00
2018-09-03T20:17:30.533Z,21.00
2018-09-03T20:19:59.004Z,21.00
2018-09-03T20:22:27.626Z,21.00
2018-09-03T20:24:56.126Z,21.00
2018-09-03T20:27:24.763Z,21.00
2018-09-03T20:29:53.271Z,21.00
2018-09-03T20:32:21.847Z,21.00
2018-09-03T20:34:50.363Z,20.90
2018-09-03T20:37:19.200Z,20.90
2018-09-03T20:39:47.812Z,20.90
2018-09-03T20:42:16.637Z,20.90
2018-09-03T20:44:45.864Z,20.90
2018-09-03T20:47:14.372Z,20.90
2018-09-03T20:49:42.965Z,20.90
2018-09-03T20:52:11.513Z,20.80
2018-09-03T20:54:40.092Z,20.80
2018-09-03T20:57:08.942Z,20.80
2018-09-03T20:59:37.614Z,20.80
2018-09-03T21:02:06.254Z,20.80
2018-09-03T21:04:34.939Z,20.80
2018-09-03T21:07:03.509Z,20.80
2018-09-03T21:09:32.106Z,20.80
2018-09-03T21:12:00.872Z,20.70
2018-09-03T21:14:29.474Z,20.70
2018-09-03T21:16:58.117Z,20.70
2018-09-03T21:19:26.665Z,20.70
2018-09-03T21:21:55.320Z,20.70
2018-09-03T21:24:23.907Z,20.60
2018-09-03T21:26:52.487Z,20.50
2018-09-03T21:29:21.074Z,20.40
2018-09-03T21:31:49.571Z,20.40
2018-09-03T21:34:18.204Z,20.30
2018-09-03T21:36:46.750Z,20.20
2018-09-03T21:39:15.636Z,20.20
2018-09-03T21:41:44.089Z,20.10
2018-09-03T21:44:12.794Z,20.10
2018-09-03T21:46:41.599Z,20.10
2018-09-03T21:49:10.180Z,20.10
2018-09-03T21:51:38.811Z,20.10
2018-09-03T21:54:07.351Z,20.10
2018-09-03T21:56:36.182Z,20.10
2018-09-03T21:59:04.941Z,20.10
2018-09-03T22:01:33.649Z,20.10
2018-09-03T22:04:02.161Z,20.10
2018-09-03T22:06:31.971Z,20.10
2018-09-03T22:09:01.481Z,20.10
2018-09-03T22:11:30.493Z,20.10
2018-09-03T22:13:59.242Z,20.10
2018-09-03T22:16:27.885Z,20.10
2018-09-03T22:18:56.364Z,20.10
2018-09-03T22:21:24.961Z,20.10
2018-09-03T22:23:53.457Z,20.10
2018-09-03T22:26:22.242Z,20.10
2018-09-03T22:28:51.389Z,20.10
2018-09-03T22:31:20.021Z,20.10
2018-09-03T22:33:48.702Z,20.10
2018-09-03T22:36:17.237Z,20.10
2018-09-03T22:38:45.747Z,20.10
2018-09-03T22:41:14.285Z,20.10
2018-09-03T22:43:42.958Z,20.00
2018-09-03T22:46:11.534Z,20.00
2018-09-03T22:48:41.158Z,20.00
2018-09-03T22:51:09.737Z,20.00
2018-09-03T22:53:38.353Z,19.90
2018-09-03T22:56:06.975Z,19.90
2018-09-03T22:58:35.719Z,19.80
2018-09-03T23:01:04.530Z,19.80
2018-09-03T23:03:33.374Z,19.70
2018-09-03T23:06:02.263Z,19.70
2018-09-03T23:08:31.074Z,19.70
2018-09-03T23:10:59.899Z,19.70
2018-09-03T23:13:28.753Z,19.70
2018-09-03T23:15:57.343Z,19.70
2018-09-03T23:18:26.077Z,19.70
2018-09-03T23:20:54.654Z,19.70
2018-09-03T23:23:23.230Z,19.70
2018-09-03T23:25:51.837Z,19.60
2018-09-03T23:28:20.365Z,19.60
2018-09-03T23:30:48.903Z,19.60
2018-09-03T23:33:17.361Z,19.60
2018-09-03T23:35:45.836Z,19.50
2018-09-03T23:38:15.026Z,19.50
2018-09-03T23:40:43.568Z,19.50
2018-09-03T23:43:12.102Z,19.40
2018-09-03T23:45:40.601Z,19.40
2018-09-03T23:48:09.133Z,19.30
2018-09-03T23:50:37.708Z,19.30
2018-09-03T23:53:06.404Z,19.20
2018-09-03T23:55:35.197Z,19.10
2018-09-03T23:58:03.778Z,19.10
